Runaway Bay, Texas
Current Conditions -  °F | °C
As of 9:35 AM on Saturday 22 Nov 2014 (Local Time) from KXBP Reporting Station
Thunderstorm Thunderstorm  
Wind Chill: 16°   Ceiling: 600
Heat Index: 16°   Visibility: 5mi
Dew Point: 16°   Wind: 9mph
Humidity: 100%   Direction: 130°SE
Pressure: 30.03"   Gusts: NA
Location:  33.1691°N, 97.8246°W
Report Text: KXBP 221535Z AUTO 13008KT 5SM VCTS BR OVC006 16/16 A3003 RMK AO2 LTG DSNT W THRU NE T01570157
Loading
Personal Weather Stations






























Interactive Weather Map New forecast layout! Learn more

10-Day Weather Forecast

Advertisements
Track Severe Weather on mobile